createdAt,value
2022-07-25T00:00:25.955Z,7.62
2022-07-25T00:02:59.575Z,7.17
2022-07-25T00:05:37.619Z,8.43
2022-07-25T00:08:07.861Z,8.28
2022-07-25T00:10:40.690Z,8.98
2022-07-25T00:13:14.132Z,8.05
2022-07-25T00:15:48.050Z,7.90
2022-07-25T00:18:20.956Z,8.30
2022-07-25T00:20:54.368Z,8.00
2022-07-25T00:23:27.913Z,7.58
2022-07-25T00:26:00.914Z,7.83
2022-07-25T00:28:34.426Z,8.60
2022-07-25T00:31:07.615Z,8.58
2022-07-25T00:33:41.423Z,8.98
2022-07-25T00:36:14.240Z,8.53
2022-07-25T00:38:46.987Z,8.75
2022-07-25T00:41:19.774Z,9.00
2022-07-25T00:43:52.488Z,8.13
2022-07-25T00:46:25.477Z,8.55
2022-07-25T00:49:00.318Z,8.80
2022-07-25T00:51:33.346Z,8.13
2022-07-25T00:54:06.763Z,7.45
2022-07-25T00:56:40.521Z,7.95
2022-07-25T00:59:14.171Z,8.95
2022-07-25T01:01:48.674Z,8.63
2022-07-25T01:04:21.577Z,8.60
2022-07-25T01:06:54.465Z,8.83
2022-07-25T01:09:27.927Z,8.70
2022-07-25T01:12:00.825Z,8.10
2022-07-25T01:14:33.705Z,7.72
2022-07-25T01:17:07.304Z,8.35
2022-07-25T01:19:40.734Z,8.18
2022-07-25T01:22:13.816Z,8.55
2022-07-25T01:24:47.249Z,8.75
2022-07-25T01:27:20.142Z,8.47
2022-07-25T01:29:53.244Z,8.18
2022-07-25T01:32:26.066Z,8.83
2022-07-25T01:34:59.174Z,8.88
2022-07-25T01:37:32.269Z,8.75
2022-07-25T01:40:05.639Z,8.03
2022-07-25T01:42:39.121Z,8.78
2022-07-25T01:45:12.982Z,8.97
2022-07-25T01:47:45.782Z,9.45
2022-07-25T01:50:18.744Z,8.23
2022-07-25T01:52:51.610Z,8.55
2022-07-25T01:55:25.551Z,8.83
2022-07-25T01:57:59.838Z,8.60
2022-07-25T02:00:33.034Z,7.80
2022-07-25T02:03:23.611Z,7.75
2022-07-25T02:05:57.052Z,7.87
2022-07-25T02:08:31.697Z,9.08
2022-07-25T02:11:04.618Z,8.73
2022-07-25T02:13:38.086Z,9.08
2022-07-25T02:16:11.357Z,8.60
2022-07-25T02:18:44.871Z,9.13
2022-07-25T02:21:17.768Z,9.50
2022-07-25T02:23:51.369Z,8.90
2022-07-25T02:26:24.936Z,9.70
2022-07-25T02:28:58.825Z,9.08
2022-07-25T02:31:31.731Z,9.45
2022-07-25T02:34:04.935Z,9.03
2022-07-25T02:36:37.993Z,8.97
2022-07-25T02:39:10.983Z,9.65
2022-07-25T02:41:44.794Z,9.58
2022-07-25T02:44:17.672Z,9.90
2022-07-25T02:46:50.760Z,10.28
2022-07-25T02:49:23.694Z,10.18
2022-07-25T02:51:58.052Z,9.68
2022-07-25T02:54:30.958Z,8.73
2022-07-25T02:57:03.920Z,9.65
2022-07-25T02:59:36.775Z,9.48
2022-07-25T03:02:09.563Z,9.53
2022-07-25T03:04:43.119Z,9.68
2022-07-25T03:07:16.373Z,9.53
2022-07-25T03:09:49.156Z,9.75
2022-07-25T03:12:22.317Z,9.50
2022-07-25T03:14:55.105Z,10.88
2022-07-25T03:17:29.741Z,10.35
2022-07-25T03:20:03.355Z,10.65
2022-07-25T03:22:36.978Z,10.32
2022-07-25T03:25:15.673Z,10.23
2022-07-25T03:27:46.511Z,10.48
2022-07-25T03:30:19.765Z,10.95
2022-07-25T03:32:52.601Z,11.93
2022-07-25T03:35:26.411Z,10.85
2022-07-25T03:37:59.268Z,11.30
2022-07-25T03:40:33.573Z,11.12
2022-07-25T03:43:06.893Z,12.40
2022-07-25T03:45:40.158Z,11.20
2022-07-25T03:48:14.639Z,11.10
2022-07-25T03:50:48.229Z,11.75
2022-07-25T03:53:21.613Z,11.23
2022-07-25T03:55:55.373Z,11.95
2022-07-25T03:58:28.232Z,11.08
2022-07-25T04:03:34.874Z,10.82
2022-07-25T04:06:07.778Z,10.08
2022-07-25T04:08:41.257Z,11.05
2022-07-25T04:13:48.490Z,10.58
2022-07-25T04:16:22.230Z,11.27
2022-07-25T04:18:57.577Z,10.25
2022-07-25T04:21:30.469Z,11.00
2022-07-25T04:24:04.393Z,12.15
2022-07-25T04:26:37.520Z,11.10
2022-07-25T04:29:10.826Z,10.50
2022-07-25T04:31:43.734Z,10.13
2022-07-25T04:34:16.603Z,10.25
2022-07-25T04:36:49.361Z,10.05
2022-07-25T04:39:22.618Z,10.05
2022-07-25T04:41:55.373Z,9.63
2022-07-25T04:44:28.546Z,9.48
2022-07-25T04:47:01.228Z,8.93
2022-07-25T04:49:34.571Z,8.90
2022-07-25T04:52:07.709Z,10.93
2022-07-25T04:54:40.550Z,10.13
2022-07-25T04:57:13.465Z,11.43
2022-07-25T04:59:46.465Z,10.93
2022-07-25T05:02:19.319Z,11.88
2022-07-25T05:04:52.802Z,13.13
2022-07-25T05:07:25.732Z,12.40
2022-07-25T05:09:59.620Z,12.28
2022-07-25T05:12:33.228Z,10.72
2022-07-25T05:15:08.262Z,10.18
2022-07-25T05:17:41.750Z,10.78
2022-07-25T05:20:15.749Z,9.90
2022-07-25T05:22:49.595Z,10.18
2022-07-25T05:25:22.984Z,9.68
2022-07-25T05:27:57.524Z,10.65
2022-07-25T05:30:30.427Z,10.25
2022-07-25T05:33:03.323Z,9.50
2022-07-25T05:35:36.167Z,9.65
2022-07-25T05:38:08.904Z,9.00
2022-07-25T05:40:42.014Z,8.90
2022-07-25T05:43:14.838Z,9.48
2022-07-25T05:45:48.070Z,13.28
2022-07-25T05:48:20.807Z,9.48
2022-07-25T05:50:53.873Z,9.28
2022-07-25T05:53:27.037Z,9.10
2022-07-25T05:56:00.054Z,8.13
2022-07-25T05:58:33.451Z,8.10
2022-07-25T06:01:06.287Z,8.23
2022-07-25T06:03:39.871Z,7.80
2022-07-25T06:06:13.241Z,8.23
2022-07-25T06:08:46.960Z,7.85
2022-07-25T06:11:20.726Z,8.98
2022-07-25T06:13:54.012Z,7.90
2022-07-25T06:16:27.693Z,8.70
2022-07-25T06:19:00.454Z,9.60
2022-07-25T06:21:33.857Z,10.03
2022-07-25T06:24:07.465Z,10.35
2022-07-25T06:29:12.795Z,11.08
2022-07-25T06:31:47.519Z,10.23
2022-07-25T06:34:21.119Z,10.72
2022-07-25T06:36:53.946Z,10.93
2022-07-25T06:39:28.854Z,11.70
2022-07-25T06:42:04.399Z,11.55
2022-07-25T06:44:38.954Z,11.83
2022-07-25T06:47:14.060Z,13.18
2022-07-25T06:49:47.871Z,11.70
2022-07-25T06:52:21.012Z,11.03
2022-07-25T06:54:53.929Z,9.53
2022-07-25T06:57:26.906Z,8.40
2022-07-25T07:00:00.005Z,7.22
2022-07-25T07:02:33.098Z,6.47
2022-07-25T07:05:06.403Z,6.70
2022-07-25T07:07:40.691Z,6.17
2022-07-25T07:10:15.039Z,5.80
2022-07-25T07:12:48.883Z,6.10
2022-07-25T07:15:22.250Z,6.50
2022-07-25T07:17:55.709Z,5.30
2022-07-25T07:20:28.879Z,5.75
2022-07-25T07:23:01.974Z,5.97
2022-07-25T07:25:35.949Z,5.53
2022-07-25T07:28:10.323Z,5.15
2022-07-25T07:31:14.482Z,5.67
2022-07-25T07:33:18.271Z,5.72
2022-07-25T07:35:52.877Z,4.62
2022-07-25T07:38:27.162Z,7.33
2022-07-25T07:41:00.163Z,4.62
2022-07-25T07:43:33.329Z,3.50
2022-07-25T07:46:06.741Z,4.92
2022-07-25T07:48:39.923Z,4.42
2022-07-25T07:51:12.727Z,5.13
2022-07-25T07:54:03.489Z,4.95
2022-07-25T07:56:36.385Z,4.70
2022-07-25T07:59:09.857Z,4.47
2022-07-25T08:01:43.008Z,4.70
2022-07-25T08:04:16.534Z,5.10
2022-07-25T08:06:49.727Z,5.45
2022-07-25T08:09:24.885Z,7.33
2022-07-25T08:12:00.341Z,4.90
2022-07-25T08:14:43.646Z,3.65
2022-07-25T08:19:51.299Z,3.75
2022-07-25T08:22:24.083Z,4.03
2022-07-25T08:24:56.931Z,3.80
2022-07-25T08:27:29.931Z,7.75
2022-07-25T08:30:03.273Z,7.83
2022-07-25T08:32:38.409Z,4.15
2022-07-25T08:35:11.717Z,3.80
2022-07-25T08:37:44.743Z,4.12
2022-07-25T08:40:20.476Z,4.00
2022-07-25T08:42:55.340Z,4.35
2022-07-25T08:45:30.285Z,5.05
2022-07-25T08:48:03.410Z,4.42
2022-07-25T08:50:36.487Z,3.87
2022-07-25T08:53:32.275Z,4.28
2022-07-25T08:55:46.010Z,3.77
2022-07-25T08:58:21.802Z,4.12
2022-07-25T09:00:54.601Z,4.00
2022-07-25T09:03:28.964Z,4.33
2022-07-25T09:08:33.768Z,3.90
2022-07-25T09:11:07.240Z,3.72
2022-07-25T09:13:40.679Z,4.00
2022-07-25T09:16:13.604Z,4.00
2022-07-25T09:18:48.041Z,4.00
2022-07-25T09:21:21.701Z,4.67
2022-07-25T09:23:54.781Z,4.15
2022-07-25T09:26:27.724Z,6.33
2022-07-25T09:29:02.336Z,4.70
2022-07-25T09:31:35.626Z,4.55
2022-07-25T09:34:10.326Z,5.05
2022-07-25T09:36:58.426Z,4.45
2022-07-25T09:39:45.005Z,4.25
2022-07-25T09:42:24.327Z,4.15
2022-07-25T09:45:15.261Z,4.47
2022-07-25T09:47:58.255Z,4.28
2022-07-25T09:50:33.646Z,4.45
2022-07-25T09:53:06.672Z,4.65
2022-07-25T09:55:40.453Z,4.78
2022-07-25T09:58:15.060Z,4.75
2022-07-25T10:00:48.283Z,4.58
2022-07-25T10:03:44.922Z,4.50
2022-07-25T10:06:55.780Z,5.42
2022-07-25T10:09:28.786Z,4.60
2022-07-25T10:12:10.936Z,4.47
2022-07-25T10:14:44.491Z,5.08
2022-07-25T10:17:22.861Z,5.25
2022-07-25T10:19:58.905Z,4.65
2022-07-25T10:22:57.808Z,4.62
2022-07-25T10:25:24.432Z,4.97
2022-07-25T10:28:04.336Z,4.92
2022-07-25T10:30:40.614Z,5.87
2022-07-25T10:33:20.042Z,6.05
2022-07-25T10:35:52.812Z,5.92
2022-07-25T10:38:28.526Z,6.97
2022-07-25T10:41:03.670Z,7.35
2022-07-25T10:43:46.857Z,7.97
2022-07-25T10:46:26.901Z,7.33
2022-07-25T10:49:02.591Z,6.90
2022-07-25T10:51:41.926Z,6.92
2022-07-25T10:54:19.577Z,7.35
2022-07-25T10:57:00.666Z,6.05
2022-07-25T10:59:37.246Z,5.53
2022-07-25T11:02:18.566Z,5.40
2022-07-25T11:05:03.649Z,6.10
2022-07-25T11:07:37.159Z,5.20
2022-07-25T11:10:10.722Z,5.20
2022-07-25T11:12:46.525Z,4.33
2022-07-25T11:15:23.206Z,4.70
2022-07-25T11:17:56.578Z,4.03
2022-07-25T11:20:29.503Z,4.03
2022-07-25T11:23:02.872Z,4.00
2022-07-25T11:25:37.177Z,3.98
2022-07-25T11:28:10.284Z,4.45
2022-07-25T11:30:43.156Z,3.80
2022-07-25T11:33:17.631Z,3.80
2022-07-25T11:35:50.814Z,4.28
2022-07-25T11:38:25.236Z,4.00
2022-07-25T11:40:59.595Z,4.67
2022-07-25T11:46:08.508Z,4.55
2022-07-25T11:48:43.265Z,4.72
2022-07-25T11:51:20.966Z,5.05
2022-07-25T11:53:53.977Z,5.15
2022-07-25T11:56:43.612Z,4.95
2022-07-25T11:59:03.176Z,5.70
2022-07-25T12:01:38.765Z,4.97
2022-07-25T12:04:17.533Z,4.30
2022-07-25T12:06:51.364Z,4.42
2022-07-25T12:09:24.932Z,4.03
2022-07-25T12:12:04.303Z,4.03
2022-07-25T12:14:45.436Z,3.90
2022-07-25T12:17:19.470Z,3.80
2022-07-25T12:19:52.361Z,4.13
2022-07-25T12:22:25.107Z,4.62
2022-07-25T12:24:58.123Z,4.28
2022-07-25T12:27:31.263Z,4.62
2022-07-25T12:30:05.963Z,5.27
2022-07-25T12:32:40.213Z,4.30
2022-07-25T12:35:15.456Z,3.55
2022-07-25T12:37:49.054Z,3.52
2022-07-25T12:40:22.927Z,3.90
2022-07-25T12:42:55.725Z,4.70
2022-07-25T12:45:28.976Z,4.20
2022-07-25T12:48:01.828Z,4.20
2022-07-25T12:50:35.161Z,4.07
2022-07-25T12:53:07.982Z,3.80
2022-07-25T12:55:41.639Z,4.85
2022-07-25T12:58:15.432Z,4.47
2022-07-25T13:00:49.531Z,4.22
2022-07-25T13:03:22.433Z,3.80
2022-07-25T13:05:55.354Z,4.35
2022-07-25T13:08:28.241Z,3.85
2022-07-25T13:11:01.832Z,3.72
2022-07-25T13:13:34.563Z,4.35
2022-07-25T13:16:08.223Z,3.83
2022-07-25T13:18:41.787Z,3.72
2022-07-25T13:21:15.629Z,4.20
2022-07-25T13:23:48.510Z,7.25
2022-07-25T13:26:23.198Z,6.15
2022-07-25T13:29:04.793Z,5.60
2022-07-25T13:31:31.225Z,4.75
2022-07-25T13:34:04.402Z,4.80
2022-07-25T13:36:40.489Z,4.47
2022-07-25T13:39:13.286Z,4.90
2022-07-25T13:41:46.258Z,4.67
2022-07-25T13:44:19.177Z,4.65
2022-07-25T13:46:52.338Z,7.03
2022-07-25T13:49:26.034Z,6.17
2022-07-25T13:51:59.268Z,5.35
2022-07-25T13:54:32.700Z,5.20
2022-07-25T13:57:05.926Z,5.60
2022-07-25T13:59:38.938Z,6.53
2022-07-25T14:04:46.572Z,5.85
2022-07-25T14:07:20.244Z,6.15
2022-07-25T14:09:53.648Z,5.62
2022-07-25T14:12:26.412Z,6.15
2022-07-25T14:14:59.409Z,5.92
2022-07-25T14:17:32.632Z,5.50
2022-07-25T14:20:05.233Z,7.33
2022-07-25T14:22:39.781Z,7.35
2022-07-25T14:25:14.518Z,6.47
2022-07-25T14:27:48.262Z,5.80
2022-07-25T14:30:21.637Z,6.58
2022-07-25T14:32:54.888Z,7.58
2022-07-25T14:35:32.264Z,7.03
2022-07-25T14:38:02.434Z,7.03
2022-07-25T14:40:36.121Z,7.35
2022-07-25T14:43:09.026Z,6.87
2022-07-25T14:45:43.547Z,6.78
2022-07-25T14:48:16.965Z,7.97
2022-07-25T14:50:50.239Z,7.85
2022-07-25T14:53:23.040Z,7.65
2022-07-25T14:55:55.922Z,7.95
2022-07-25T14:58:28.935Z,7.58
2022-07-25T15:01:02.832Z,8.50
2022-07-25T15:03:37.205Z,7.90
2022-07-25T15:06:10.865Z,9.03
2022-07-25T15:11:17.128Z,8.70
2022-07-25T15:13:53.358Z,9.85
2022-07-25T15:16:26.618Z,9.88
2022-07-25T15:19:16.099Z,9.03
2022-07-25T15:21:36.698Z,10.20
2022-07-25T15:24:10.241Z,9.15
2022-07-25T15:26:43.760Z,9.50
2022-07-25T15:29:18.245Z,8.93
2022-07-25T15:31:51.901Z,8.13
2022-07-25T15:34:24.898Z,7.42
2022-07-25T15:36:57.649Z,7.62
2022-07-25T15:39:30.998Z,7.90
2022-07-25T15:42:03.836Z,8.45
2022-07-25T15:44:38.471Z,7.72
2022-07-25T15:47:11.600Z,8.55
2022-07-25T15:49:45.127Z,9.70
2022-07-25T15:52:18.938Z,10.15
2022-07-25T15:54:53.286Z,8.90
2022-07-25T15:59:58.373Z,11.48
2022-07-25T16:02:31.275Z,11.45
2022-07-25T16:05:05.250Z,11.55
2022-07-25T16:07:38.357Z,10.65
2022-07-25T16:10:12.938Z,9.60
2022-07-25T16:12:45.742Z,8.80
2022-07-25T16:15:19.391Z,8.93
2022-07-25T16:18:00.228Z,8.73
2022-07-25T16:20:32.065Z,9.83
2022-07-25T16:25:37.030Z,9.00
2022-07-25T16:28:11.463Z,10.70
2022-07-25T16:30:44.499Z,8.73
2022-07-25T16:33:17.463Z,7.60
2022-07-25T16:35:51.121Z,8.08
2022-07-25T16:38:24.207Z,7.62
2022-07-25T16:40:57.045Z,7.95
2022-07-25T16:43:29.806Z,9.15
2022-07-25T16:46:03.505Z,9.08
2022-07-25T16:48:36.368Z,8.10
2022-07-25T16:51:09.886Z,8.40
2022-07-25T16:53:43.205Z,8.07
2022-07-25T16:56:17.085Z,10.38
2022-07-25T16:58:49.986Z,10.65
2022-07-25T17:01:24.593Z,10.82
2022-07-25T17:03:57.869Z,10.23
2022-07-25T17:06:31.106Z,9.05
2022-07-25T17:09:05.425Z,7.12
2022-07-25T17:11:39.166Z,7.03
2022-07-25T17:14:12.014Z,8.23
2022-07-25T17:16:46.499Z,8.70
2022-07-25T17:19:20.199Z,9.03
2022-07-25T17:21:52.960Z,8.63
2022-07-25T17:24:26.398Z,8.63
2022-07-25T17:26:59.526Z,7.70
2022-07-25T17:29:32.642Z,8.83
2022-07-25T17:32:10.534Z,8.83
2022-07-25T17:34:43.396Z,9.50
2022-07-25T17:37:16.415Z,10.55
2022-07-25T17:39:49.169Z,10.90
2022-07-25T17:42:23.846Z,10.80
2022-07-25T17:44:57.648Z,8.50
2022-07-25T17:47:31.131Z,10.23
2022-07-25T17:50:05.555Z,11.40
2022-07-25T17:52:38.799Z,9.93
2022-07-25T17:55:12.408Z,11.73
2022-07-25T17:57:46.034Z,13.25
2022-07-25T18:00:19.445Z,13.38
2022-07-25T18:02:52.918Z,15.90
2022-07-25T18:05:26.068Z,14.53
2022-07-25T18:07:59.662Z,17.90
2022-07-25T18:10:32.965Z,16.83
2022-07-25T18:13:05.842Z,16.27
2022-07-25T18:15:39.357Z,16.62
2022-07-25T18:18:15.648Z,14.90
2022-07-25T18:20:48.025Z,15.65
2022-07-25T18:23:20.996Z,17.32
2022-07-25T18:25:54.513Z,16.35
2022-07-25T18:28:28.165Z,16.10
2022-07-25T18:31:01.079Z,14.35
2022-07-25T18:33:34.336Z,15.73
2022-07-25T18:36:07.989Z,16.52
2022-07-25T18:38:41.101Z,14.33
2022-07-25T18:41:31.361Z,13.10
2022-07-25T18:43:52.401Z,12.13
2022-07-25T18:48:57.743Z,13.10
2022-07-25T18:51:31.109Z,15.15
2022-07-25T18:54:04.276Z,14.75
2022-07-25T18:59:11.257Z,13.00
2022-07-25T19:01:44.851Z,13.78
2022-07-25T19:04:18.570Z,14.07
2022-07-25T19:06:51.577Z,13.10
2022-07-25T19:09:26.276Z,14.40
2022-07-25T19:12:01.294Z,14.10
2022-07-25T19:14:34.842Z,15.63
2022-07-25T19:17:08.165Z,16.07
2022-07-25T19:19:42.288Z,15.32
2022-07-25T19:22:16.047Z,15.20
2022-07-25T19:24:49.443Z,13.83
2022-07-25T19:27:25.724Z,14.55
2022-07-25T19:29:58.766Z,14.13
2022-07-25T19:32:31.519Z,12.43
2022-07-25T19:35:06.090Z,11.35
2022-07-25T19:37:39.278Z,11.48
2022-07-25T19:40:12.777Z,11.15
2022-07-25T19:42:46.955Z,12.70
2022-07-25T19:45:19.613Z,11.70
2022-07-25T19:47:52.711Z,11.15
2022-07-25T19:50:25.667Z,12.23
2022-07-25T19:52:58.461Z,11.73
2022-07-25T19:55:32.047Z,12.93
2022-07-25T19:58:06.907Z,12.80
2022-07-25T20:00:40.541Z,13.62
2022-07-25T20:03:13.410Z,12.90
2022-07-25T20:05:47.543Z,12.55
2022-07-25T20:08:20.667Z,12.55
2022-07-25T20:10:53.730Z,11.80
2022-07-25T20:13:28.183Z,11.60
2022-07-25T20:16:03.304Z,11.03
2022-07-25T20:18:36.670Z,11.12
2022-07-25T20:21:09.653Z,10.28
2022-07-25T20:23:42.737Z,10.03
2022-07-25T20:26:16.199Z,10.98
2022-07-25T20:28:48.994Z,10.70
2022-07-25T20:31:23.477Z,9.80
2022-07-25T20:33:56.382Z,10.40
2022-07-25T20:36:29.762Z,10.37
2022-07-25T20:39:02.810Z,9.40
2022-07-25T20:41:39.420Z,9.40
2022-07-25T20:44:12.788Z,9.38
2022-07-25T20:46:45.612Z,10.18
2022-07-25T20:49:18.706Z,9.25
2022-07-25T20:51:54.587Z,10.43
2022-07-25T20:54:26.356Z,9.15
2022-07-25T20:56:59.389Z,8.75
2022-07-25T20:59:32.506Z,8.88
2022-07-25T21:02:05.866Z,8.55
2022-07-25T21:04:39.635Z,9.55
2022-07-25T21:07:12.666Z,10.23
2022-07-25T21:09:45.497Z,9.35
2022-07-25T21:12:18.882Z,9.90
2022-07-25T21:14:51.540Z,9.98
2022-07-25T21:17:25.019Z,9.85
2022-07-25T21:19:58.282Z,9.60
2022-07-25T21:22:31.139Z,9.40
2022-07-25T21:25:04.903Z,8.88
2022-07-25T21:27:39.039Z,9.70
2022-07-25T21:30:13.142Z,9.58
2022-07-25T21:32:46.270Z,10.30
2022-07-25T21:35:19.088Z,9.60
2022-07-25T21:37:52.601Z,8.83
2022-07-25T21:40:25.487Z,9.35
2022-07-25T21:42:58.439Z,9.15
2022-07-25T21:45:31.569Z,9.38
2022-07-25T21:48:05.252Z,10.15
2022-07-25T21:50:43.950Z,11.75
2022-07-25T21:53:17.202Z,13.72
2022-07-25T21:55:50.247Z,13.55
2022-07-25T21:58:23.790Z,13.20
2022-07-25T22:00:56.603Z,13.25
2022-07-25T22:03:29.762Z,11.95
2022-07-25T22:06:02.489Z,11.35
2022-07-25T22:08:36.029Z,11.50
2022-07-25T22:11:20.759Z,10.45
2022-07-25T22:13:44.719Z,9.78
2022-07-25T22:16:18.639Z,10.40
2022-07-25T22:18:52.335Z,11.48
2022-07-25T22:21:25.613Z,11.00
2022-07-25T22:23:58.506Z,10.88
2022-07-25T22:26:31.483Z,10.98
2022-07-25T22:29:04.484Z,10.85
2022-07-25T22:31:39.370Z,12.25
2022-07-25T22:34:12.685Z,12.10
2022-07-25T22:36:45.660Z,12.30
2022-07-25T22:39:18.953Z,12.17
2022-07-25T22:41:51.853Z,13.22
2022-07-25T22:44:24.738Z,13.22
2022-07-25T22:46:57.471Z,12.70
2022-07-25T22:49:31.056Z,14.03
2022-07-25T22:52:04.342Z,13.25
2022-07-25T22:54:38.312Z,12.63
2022-07-25T22:57:11.222Z,13.58
2022-07-25T22:59:44.490Z,13.40
2022-07-25T23:02:17.898Z,14.20
2022-07-25T23:04:50.799Z,13.83
2022-07-25T23:07:23.768Z,14.25
2022-07-25T23:09:56.662Z,13.88
2022-07-25T23:12:29.473Z,13.40
2022-07-25T23:15:03.846Z,14.03
2022-07-25T23:17:36.741Z,13.25
2022-07-25T23:20:11.321Z,13.95
2022-07-25T23:22:44.736Z,14.18
2022-07-25T23:25:18.195Z,12.85
2022-07-25T23:27:50.954Z,14.65
2022-07-25T23:30:24.509Z,13.65
2022-07-25T23:32:57.665Z,14.20
2022-07-25T23:35:31.389Z,13.75
2022-07-25T23:38:04.730Z,14.70
2022-07-25T23:40:37.700Z,13.67
2022-07-25T23:43:10.562Z,13.90
2022-07-25T23:45:45.499Z,13.10
2022-07-25T23:48:19.856Z,15.03
2022-07-25T23:50:52.846Z,13.45
2022-07-25T23:53:25.757Z,13.13
2022-07-25T23:55:58.729Z,14.28
2022-07-25T23:58:31.770Z,13.70
